Sherman Station, Maine
Current Conditions -  °F | °C
As of 4:53 AM on Saturday 29 Nov 2014 (Local Time) from KMLT Reporting Station
Clear Clear  
Wind Chill: 15°   Ceiling: Unl
Heat Index: 15°   Visibility: 10mi
Dew Point:   Wind: 0mph
Humidity: 74%   Direction: NA
Pressure: 30.19"   Gusts: NA
Location:  45.89°N, 68.44°W
Report Text: KMLT 290953Z AUTO 00000KT 10SM CLR M09/M13 A3019 RMK AO2 SLP236 T10941133
Loading
Personal Weather Stations






























Interactive Weather Map New forecast layout! Learn more

10-Day Weather Forecast

Advertisements
Track Severe Weather on mobile